Saint Petersburg, FL

03:43 PM EDT on April 19, 2018 (GMT -0400)
ME6627 | | Change Station

Elev 111 ft 27.79 °N, 82.68 °W | Updated 7 minutes ago

Växlande molnighet
Växlande molnighet
80.0 °F
Feels Like 82 °F
N
4.0
Vind Växlande Vind from Västlig
Gusts 14.0 miles/tim

Idag
High -- | Low -- °F
--% Chance of Precip.
Yesterday
High -- | Low -- °F
Precip. -- tum
Lufttryck 30.09 tum
Sikt 10.0 miles
Molnigt Växlande molnighet 3200 ft
Värmeindex 82 °F
Daggpunkt 64 °F
Luftfuktighet 59%
Rainfall 0.00 tum
Snow Depth Not available.
7:01 AM 7:58 PM
Första kvarteret, 17% visible
METAR KSPG 191853Z 28010KT 10SM SCT032 25/18 A3009 RMK AO2 SLP189 T02500178
Lufttryck 30.09 tum
Sikt 10.0 miles
Molnigt Växlande molnighet 3200 ft
Värmeindex 82 °F
Daggpunkt 64 °F
Luftfuktighet 59%
Rainfall 0.00 tum
Snow Depth Not available.
7:01 AM 7:58 PM
Första kvarteret, 17% visible
METAR KSPG 191853Z 28010KT 10SM SCT032 25/18 A3009 RMK AO2 SLP189 T02500178

Get Severe Weather Alerts

Thanks for signing up!

Be on the lookout for a verification email in your inbox.

You'll start receiving the daily forecast at 6 AM.

×

10-Day Weather Forecast

Almanac

Astronomi

Apr. 19, 2018 Rise Set
Actual Time
Civil Twilight
Nautical Twilight
Astronomical Twilight
Månen
Length Of Visible Light
Dagens längd
Tomorrow will be .
, % of the Moon is Illuminated

Today's Extremes

State Highs State Lows

Community

WunderPhotos

Category 6

Welcome to Category 6. This is the collective home for Weather Underground's featured writeups by Dr. Jeff Masters (right), Bob Henson (left), Chris Burt, and other regular contributors.

Nearby

Air Quality

  Air Quality AQ Index Pollutant
Not available.

Snödjup

Station Depth Elevation

Earthquake Activity

Stad Distance Mag. Time & Date
Minimum magnitude displayed is 2.5.

Coastal Water Temperatures

Plats Temperatur

Stations

Nearby Weather Stations

Station Location Temp Vindavkylning Daggpunkt Luftfuktighet Vind Precip. Elev Uppdaterad Type
                   

Watches & Warnings

There are currently no watches in effect.